createdAt,value
2023-01-11T00:01:32.771Z,2.60
2023-01-11T00:04:01.209Z,2.58
2023-01-11T00:06:31.060Z,2.59
2023-01-11T00:09:00.303Z,2.47
2023-01-11T00:11:28.691Z,2.44
2023-01-11T00:13:57.528Z,1.34
2023-01-11T00:16:26.097Z,1.54
2023-01-11T00:18:54.828Z,2.58
2023-01-11T00:21:23.411Z,2.60
2023-01-11T00:23:53.313Z,0.96
2023-01-11T00:26:21.764Z,2.61
2023-01-11T00:28:50.697Z,2.20
2023-01-11T00:31:19.549Z,2.29
2023-01-11T00:33:47.991Z,2.51
2023-01-11T00:36:16.461Z,2.49
2023-01-11T00:38:46.755Z,2.22
2023-01-11T00:41:34.983Z,2.52
2023-01-11T00:44:21.954Z,2.53
2023-01-11T00:47:08.164Z,2.44
2023-01-11T00:49:37.159Z,2.51
2023-01-11T00:52:08.907Z,2.73
2023-01-11T00:54:38.143Z,2.82
2023-01-11T00:57:08.618Z,2.93
2023-01-11T00:59:39.320Z,2.69
2023-01-11T01:02:09.268Z,3.08
2023-01-11T01:04:37.951Z,2.88
2023-01-11T01:07:07.398Z,3.12
2023-01-11T01:09:37.837Z,3.14
2023-01-11T01:12:09.264Z,2.22
2023-01-11T01:14:38.955Z,3.23
2023-01-11T01:17:10.045Z,3.32
2023-01-11T01:19:40.305Z,2.74
2023-01-11T01:22:09.197Z,3.39
2023-01-11T01:24:39.987Z,3.45
2023-01-11T01:27:17.927Z,3.50
2023-01-11T01:29:48.131Z,3.58
2023-01-11T01:32:21.111Z,3.62
2023-01-11T01:34:51.203Z,3.52
2023-01-11T01:37:21.475Z,2.63
2023-01-11T01:39:49.880Z,3.04
2023-01-11T01:42:24.160Z,3.22
2023-01-11T01:45:03.177Z,3.80
2023-01-11T01:47:41.614Z,3.81
2023-01-11T01:50:23.453Z,3.84
2023-01-11T01:52:59.912Z,3.21
2023-01-11T01:55:32.671Z,3.85
2023-01-11T01:58:10.494Z,3.50
2023-01-11T02:00:41.951Z,3.77
2023-01-11T02:03:15.128Z,3.59
2023-01-11T02:05:43.726Z,2.27
2023-01-11T02:08:23.798Z,3.44
2023-01-11T02:10:54.376Z,3.79
2023-01-11T02:13:24.355Z,3.82
2023-01-11T02:16:07.917Z,3.85
2023-01-11T02:18:40.098Z,2.02
2023-01-11T02:21:24.693Z,3.65
2023-01-11T02:24:24.644Z,3.77
2023-01-11T02:27:26.259Z,4.13
2023-01-11T02:30:15.446Z,4.17
2023-01-11T02:33:00.141Z,3.93
2023-01-11T02:35:43.322Z,4.23
2023-01-11T02:38:26.719Z,4.29
2023-01-11T02:41:05.019Z,3.00
2023-01-11T02:44:03.521Z,2.54
2023-01-11T02:46:44.189Z,3.34
2023-01-11T02:49:29.447Z,4.33
2023-01-11T02:52:09.723Z,4.48
2023-01-11T02:54:43.510Z,4.22
2023-01-11T02:57:17.616Z,3.40
2023-01-11T02:59:50.490Z,4.53
2023-01-11T03:02:20.399Z,4.58
2023-01-11T03:04:48.758Z,4.53
2023-01-11T03:07:42.442Z,4.46
2023-01-11T03:10:30.472Z,4.03
2023-01-11T03:13:14.032Z,4.27
2023-01-11T03:16:21.670Z,4.17
2023-01-11T03:19:03.859Z,3.98
2023-01-11T03:21:51.194Z,4.04
2023-01-11T03:24:33.170Z,4.02
2023-01-11T03:27:21.932Z,3.95
2023-01-11T03:30:03.286Z,3.11
2023-01-11T03:32:42.720Z,3.91
2023-01-11T03:35:26.468Z,3.90
2023-01-11T03:38:05.700Z,3.88
2023-01-11T03:40:41.242Z,3.86
2023-01-11T03:43:14.679Z,3.90
2023-01-11T03:45:51.501Z,3.55
2023-01-11T03:48:26.367Z,3.76
2023-01-11T03:51:00.108Z,3.83
2023-01-11T03:53:34.487Z,3.92
2023-01-11T03:56:07.013Z,3.96
2023-01-11T03:58:36.870Z,3.75
2023-01-11T04:01:05.791Z,4.02
2023-01-11T04:03:34.575Z,4.09
2023-01-11T04:06:04.976Z,4.20
2023-01-11T04:08:33.435Z,3.87
2023-01-11T04:11:06.748Z,4.40
2023-01-11T04:13:36.926Z,4.47
2023-01-11T04:16:05.778Z,3.96
2023-01-11T04:18:36.243Z,4.26
2023-01-11T04:21:08.258Z,4.30
2023-01-11T04:23:39.461Z,4.68
2023-01-11T04:26:07.868Z,4.71
2023-01-11T04:28:36.560Z,4.44
2023-01-11T04:31:05.428Z,4.20
2023-01-11T04:33:34.012Z,4.50
2023-01-11T04:36:08.075Z,4.23
2023-01-11T04:38:39.056Z,3.97
2023-01-11T04:41:31.144Z,4.88
2023-01-11T04:44:01.881Z,4.22
2023-01-11T04:46:32.398Z,5.00
2023-01-11T04:49:05.277Z,4.98
2023-01-11T04:51:36.540Z,4.71
2023-01-11T04:54:06.961Z,5.08
2023-01-11T04:56:36.482Z,5.02
2023-01-11T04:59:04.966Z,5.12
2023-01-11T05:01:33.479Z,5.02
2023-01-11T05:04:01.924Z,5.17
2023-01-11T05:06:30.414Z,5.20
2023-01-11T05:09:00.259Z,5.24
2023-01-11T05:11:28.708Z,5.27
2023-01-11T05:13:59.945Z,5.27
2023-01-11T05:16:28.758Z,5.30
2023-01-11T05:19:01.657Z,5.27
2023-01-11T05:21:34.956Z,5.14
2023-01-11T05:24:08.442Z,5.21
2023-01-11T05:26:40.151Z,5.14
2023-01-11T05:29:16.590Z,5.08
2023-01-11T05:31:45.579Z,4.81
2023-01-11T05:34:15.549Z,5.11
2023-01-11T05:36:44.618Z,4.69
2023-01-11T05:39:16.162Z,5.09
2023-01-11T05:41:44.889Z,5.09
2023-01-11T05:44:31.828Z,5.15
2023-01-11T05:47:00.581Z,4.78
2023-01-11T05:49:29.054Z,5.27
2023-01-11T05:51:57.568Z,5.33
2023-01-11T05:54:28.489Z,5.37
2023-01-11T05:56:58.975Z,5.19
2023-01-11T05:59:27.458Z,5.41
2023-01-11T06:01:55.927Z,5.11
2023-01-11T06:04:24.367Z,5.30
2023-01-11T06:06:53.074Z,5.56
2023-01-11T06:09:21.671Z,5.61
2023-01-11T06:11:51.410Z,5.64
2023-01-11T06:14:22.536Z,5.66
2023-01-11T06:16:51.290Z,5.70
2023-01-11T06:19:20.403Z,5.75
2023-01-11T06:21:48.860Z,5.76
2023-01-11T06:24:17.501Z,5.77
2023-01-11T06:26:46.639Z,5.78
2023-01-11T06:29:16.377Z,5.69
2023-01-11T06:31:45.750Z,5.71
2023-01-11T06:34:14.128Z,5.88
2023-01-11T06:36:42.579Z,5.90
2023-01-11T06:39:11.594Z,5.67
2023-01-11T06:41:40.323Z,4.14
2023-01-11T06:44:08.741Z,5.90
2023-01-11T06:46:44.604Z,5.90
2023-01-11T06:49:13.582Z,5.92
2023-01-11T06:51:42.337Z,5.97
2023-01-11T06:54:10.754Z,5.54
2023-01-11T06:56:39.537Z,5.99
2023-01-11T06:59:08.415Z,6.00
2023-01-11T07:01:40.880Z,6.00
2023-01-11T07:04:09.399Z,6.06
2023-01-11T07:06:37.987Z,5.79
2023-01-11T07:09:06.549Z,6.02
2023-01-11T07:11:38.945Z,6.06
2023-01-11T07:14:07.688Z,5.87
2023-01-11T07:16:37.362Z,6.13
2023-01-11T07:19:06.996Z,6.13
2023-01-11T07:21:35.332Z,5.71
2023-01-11T07:24:03.981Z,6.32
2023-01-11T07:26:33.126Z,6.34
2023-01-11T07:29:01.550Z,6.33
2023-01-11T07:31:31.266Z,6.05
2023-01-11T07:34:01.164Z,5.71
2023-01-11T07:36:30.072Z,5.53
2023-01-11T07:38:58.653Z,6.46
2023-01-11T07:41:44.503Z,6.44
2023-01-11T07:44:13.466Z,6.50
2023-01-11T07:46:41.933Z,6.58
2023-01-11T07:49:12.783Z,6.40
2023-01-11T07:51:41.137Z,6.65
2023-01-11T07:54:09.615Z,6.72
2023-01-11T07:56:38.034Z,6.76
2023-01-11T07:59:06.384Z,6.53
2023-01-11T08:01:34.770Z,6.83
2023-01-11T08:04:03.836Z,6.83
2023-01-11T08:06:33.603Z,6.86
2023-01-11T08:09:01.995Z,6.49
2023-01-11T08:11:47.988Z,6.92
2023-01-11T08:14:45.083Z,6.99
2023-01-11T08:17:16.703Z,7.05
2023-01-11T08:19:45.262Z,7.11
2023-01-11T08:22:18.508Z,7.18
2023-01-11T08:24:46.938Z,7.25
2023-01-11T08:27:15.389Z,7.30
2023-01-11T08:29:44.378Z,7.36
2023-01-11T08:32:13.387Z,7.38
2023-01-11T08:34:42.183Z,7.43
2023-01-11T08:37:10.545Z,7.47
2023-01-11T08:39:40.466Z,7.46
2023-01-11T08:42:08.907Z,7.52
2023-01-11T08:44:37.267Z,7.58
2023-01-11T08:47:07.857Z,7.61
2023-01-11T08:49:37.515Z,7.10
2023-01-11T08:52:06.155Z,7.60
2023-01-11T08:54:34.463Z,7.68
2023-01-11T08:57:04.257Z,7.73
2023-01-11T08:59:32.610Z,7.77
2023-01-11T09:02:02.738Z,7.75
2023-01-11T09:04:31.213Z,7.74
2023-01-11T09:06:59.631Z,7.49
2023-01-11T09:09:28.033Z,7.80
2023-01-11T09:11:57.412Z,7.83
2023-01-11T09:14:29.589Z,7.55
2023-01-11T09:16:58.986Z,7.93
2023-01-11T09:19:27.341Z,7.94
2023-01-11T09:22:00.148Z,7.93
2023-01-11T09:24:28.970Z,7.96
2023-01-11T09:27:00.254Z,7.97
2023-01-11T09:29:30.085Z,7.96
2023-01-11T09:31:58.447Z,7.97
2023-01-11T09:34:27.528Z,8.01
2023-01-11T09:36:59.939Z,8.04
2023-01-11T09:39:28.958Z,8.16
2023-01-11T09:42:31.744Z,8.20
2023-01-11T09:45:13.714Z,8.27
2023-01-11T09:47:49.319Z,8.29
2023-01-11T09:50:24.744Z,8.12
2023-01-11T09:52:59.111Z,8.33
2023-01-11T09:55:37.067Z,8.46
2023-01-11T09:58:33.494Z,8.54
2023-01-11T10:01:12.363Z,8.62
2023-01-11T10:04:36.755Z,8.69
2023-01-11T10:07:42.963Z,8.82
2023-01-11T10:18:32.892Z,8.76
2023-01-11T10:19:41.618Z,9.04
2023-01-11T10:22:18.881Z,9.04
2023-01-11T10:24:56.326Z,9.07
2023-01-11T10:27:35.711Z,8.98
2023-01-11T10:30:33.460Z,8.94
2023-01-11T10:33:20.709Z,9.28
2023-01-11T10:36:13.597Z,9.34
2023-01-11T10:39:03.167Z,9.38
2023-01-11T10:41:46.715Z,9.37
2023-01-11T10:44:28.837Z,9.36
2023-01-11T10:47:01.582Z,9.03
2023-01-11T10:49:44.284Z,9.24
2023-01-11T10:52:39.079Z,9.29
2023-01-11T10:55:17.549Z,9.36
2023-01-11T10:58:02.852Z,9.46
2023-01-11T11:00:45.161Z,9.57
2023-01-11T11:03:52.830Z,9.63
2023-01-11T11:06:40.931Z,9.60
2023-01-11T11:09:24.267Z,9.57
2023-01-11T11:11:59.937Z,9.57
2023-01-11T11:14:39.531Z,9.58
2023-01-11T11:17:24.351Z,9.56
2023-01-11T11:19:54.292Z,9.61
2023-01-11T11:22:24.246Z,9.53
2023-01-11T11:25:03.517Z,9.53
2023-01-11T11:27:41.557Z,9.52
2023-01-11T11:30:15.076Z,9.53
2023-01-11T11:32:55.779Z,9.57
2023-01-11T11:35:38.320Z,9.42
2023-01-11T11:38:19.267Z,9.79
2023-01-11T11:40:59.493Z,9.89
2023-01-11T11:43:29.190Z,9.69
2023-01-11T11:46:00.010Z,9.78
2023-01-11T11:48:32.042Z,9.47
2023-01-11T11:51:04.174Z,9.79
2023-01-11T11:53:43.059Z,9.77
2023-01-11T11:56:24.252Z,9.71
2023-01-11T11:58:53.728Z,9.65
2023-01-11T12:01:30.858Z,9.57
2023-01-11T12:04:05.158Z,9.27
2023-01-11T12:06:33.595Z,9.41
2023-01-11T12:09:11.129Z,9.29
2023-01-11T12:11:43.133Z,9.42
2023-01-11T12:14:22.267Z,9.36
2023-01-11T12:16:50.928Z,9.29
2023-01-11T12:19:29.362Z,9.28
2023-01-11T12:22:18.737Z,9.22
2023-01-11T12:25:04.722Z,9.18
2023-01-11T12:27:47.590Z,8.94
2023-01-11T12:30:26.496Z,8.97
2023-01-11T12:33:30.912Z,9.23
2023-01-11T12:36:07.063Z,9.17
2023-01-11T12:38:48.580Z,9.29
2023-01-11T12:41:57.666Z,9.32
2023-01-11T12:45:00.130Z,9.39
2023-01-11T12:48:15.578Z,9.50
2023-01-11T12:51:07.088Z,9.52
2023-01-11T12:54:06.099Z,9.01
2023-01-11T12:56:58.740Z,9.48
2023-01-11T13:00:06.090Z,9.55
2023-01-11T13:03:09.341Z,9.59
2023-01-11T13:05:53.892Z,9.64
2023-01-11T13:08:41.617Z,9.70
2023-01-11T13:11:36.077Z,9.69
2023-01-11T13:14:27.053Z,9.68
2023-01-11T13:17:06.696Z,9.66
2023-01-11T13:19:46.070Z,9.58
2023-01-11T13:22:20.586Z,9.57
2023-01-11T13:24:52.356Z,9.41
2023-01-11T13:27:25.387Z,9.57
2023-01-11T13:29:59.532Z,9.55
2023-01-11T13:32:37.488Z,9.55
2023-01-11T13:35:17.586Z,9.46
2023-01-11T13:37:55.970Z,9.61
2023-01-11T13:40:30.521Z,9.59
2023-01-11T13:43:08.873Z,9.29
2023-01-11T13:45:47.976Z,9.51
2023-01-11T13:48:25.995Z,9.38
2023-01-11T13:51:04.673Z,9.29
2023-01-11T13:53:44.553Z,9.39
2023-01-11T13:56:23.254Z,9.44
2023-01-11T13:59:00.725Z,9.46
2023-01-11T14:01:44.125Z,9.40
2023-01-11T14:04:21.227Z,9.32
2023-01-11T14:07:09.987Z,8.86
2023-01-11T14:10:16.835Z,9.31
2023-01-11T14:13:37.033Z,9.25
2023-01-11T14:16:19.857Z,9.26
2023-01-11T14:19:04.117Z,9.26
2023-01-11T14:21:46.255Z,9.26
2023-01-11T14:24:19.198Z,9.22
2023-01-11T14:27:17.170Z,9.20
2023-01-11T14:30:24.484Z,9.18
2023-01-11T14:33:54.066Z,9.12
2023-01-11T14:37:14.549Z,8.80
2023-01-11T14:40:48.564Z,8.92
2023-01-11T14:43:45.614Z,8.71
2023-01-11T14:46:54.386Z,8.81
2023-01-11T14:49:45.967Z,8.78
2023-01-11T14:52:34.543Z,8.74
2023-01-11T14:55:17.906Z,8.68
2023-01-11T14:58:03.571Z,8.65
2023-01-11T15:01:11.703Z,8.48
2023-01-11T15:03:58.120Z,8.61
2023-01-11T15:06:32.594Z,8.58
2023-01-11T15:09:02.404Z,8.52
2023-01-11T15:11:42.090Z,8.52
2023-01-11T15:14:30.704Z,8.52
2023-01-11T15:17:20.551Z,8.29
2023-01-11T15:19:53.364Z,8.45
2023-01-11T15:22:29.696Z,8.37
2023-01-11T15:25:06.849Z,8.39
2023-01-11T15:27:38.367Z,8.22
2023-01-11T15:30:29.487Z,8.38
2023-01-11T15:33:45.492Z,8.31
2023-01-11T15:36:15.494Z,8.28
2023-01-11T15:38:53.541Z,8.26
2023-01-11T15:42:07.624Z,8.21
2023-01-11T15:45:07.834Z,8.17
2023-01-11T15:48:14.758Z,7.77
2023-01-11T15:51:13.112Z,8.14
2023-01-11T15:54:35.993Z,7.83
2023-01-11T15:57:41.112Z,8.14
2023-01-11T16:00:55.417Z,8.14
2023-01-11T16:03:54.183Z,8.16
2023-01-11T16:06:39.447Z,8.14
2023-01-11T16:09:33.026Z,8.14
2023-01-11T16:12:31.440Z,8.14
2023-01-11T16:15:24.342Z,8.09
2023-01-11T16:17:53.542Z,8.05
2023-01-11T16:20:27.902Z,8.16
2023-01-11T16:23:02.279Z,8.18
2023-01-11T16:25:33.956Z,8.20
2023-01-11T16:28:05.061Z,8.20
2023-01-11T16:30:35.277Z,7.83
2023-01-11T16:33:21.652Z,8.20
2023-01-11T16:35:50.808Z,7.50
2023-01-11T16:38:25.253Z,8.24
2023-01-11T16:40:56.354Z,8.23
2023-01-11T16:43:29.033Z,8.11
2023-01-11T16:45:58.549Z,8.22
2023-01-11T16:48:29.965Z,8.02
2023-01-11T16:51:02.819Z,8.09
2023-01-11T16:53:35.127Z,7.72
2023-01-11T16:56:07.782Z,8.23
2023-01-11T16:58:39.193Z,8.26
2023-01-11T17:01:10.764Z,8.26
2023-01-11T17:03:43.969Z,8.24
2023-01-11T17:06:20.654Z,8.26
2023-01-11T17:08:52.863Z,7.31
2023-01-11T17:11:36.299Z,8.26
2023-01-11T17:14:57.205Z,8.32
2023-01-11T17:17:27.416Z,8.32
2023-01-11T17:19:58.931Z,8.35
2023-01-11T17:22:33.281Z,8.10
2023-01-11T17:25:07.338Z,8.27
2023-01-11T17:27:41.544Z,8.15
2023-01-11T17:30:20.459Z,8.41
2023-01-11T17:32:53.361Z,8.45
2023-01-11T17:35:25.379Z,8.15
2023-01-11T17:37:57.663Z,8.47
2023-01-11T17:40:32.915Z,8.06
2023-01-11T17:43:24.995Z,8.23
2023-01-11T17:45:57.199Z,8.24
2023-01-11T17:48:30.768Z,8.48
2023-01-11T17:51:02.436Z,8.59
2023-01-11T17:53:34.464Z,8.64
2023-01-11T17:56:07.787Z,8.65
2023-01-11T17:58:37.571Z,8.53
2023-01-11T18:01:19.927Z,8.43
2023-01-11T18:03:52.845Z,8.67
2023-01-11T18:06:32.846Z,8.59
2023-01-11T18:09:05.619Z,8.75
2023-01-11T18:11:40.444Z,8.76
2023-01-11T18:14:19.710Z,8.62
2023-01-11T18:17:00.557Z,8.50
2023-01-11T18:19:35.997Z,8.76
2023-01-11T18:22:05.527Z,8.46
2023-01-11T18:24:45.748Z,8.73
2023-01-11T18:27:28.938Z,8.69
2023-01-11T18:30:06.212Z,8.50
2023-01-11T18:32:42.364Z,8.81
2023-01-11T18:35:18.786Z,8.81
2023-01-11T18:37:47.893Z,8.68
2023-01-11T18:40:19.197Z,8.81
2023-01-11T18:42:55.627Z,8.81
2023-01-11T18:45:25.034Z,8.20
2023-01-11T18:47:53.854Z,8.52
2023-01-11T18:50:23.928Z,8.60
2023-01-11T18:52:52.414Z,8.67
2023-01-11T18:55:20.859Z,8.18
2023-01-11T18:57:53.055Z,8.83
2023-01-11T19:00:22.718Z,8.85
2023-01-11T19:05:25.598Z,8.81
2023-01-11T19:07:54.218Z,8.31
2023-01-11T19:10:24.523Z,8.83
2023-01-11T19:12:54.423Z,8.82
2023-01-11T19:15:23.010Z,8.79
2023-01-11T19:17:51.476Z,8.81
2023-01-11T19:20:20.149Z,8.79
2023-01-11T19:22:48.509Z,8.81
2023-01-11T19:25:17.650Z,8.82
2023-01-11T19:27:46.115Z,8.79
2023-01-11T19:30:17.340Z,8.58
2023-01-11T19:32:51.075Z,8.82
2023-01-11T19:35:19.829Z,8.62
2023-01-11T19:37:50.023Z,8.58
2023-01-11T19:40:19.904Z,8.78
2023-01-11T19:42:51.306Z,8.80
2023-01-11T19:45:21.558Z,8.75
2023-01-11T19:47:50.064Z,8.80
2023-01-11T19:50:18.735Z,8.78
2023-01-11T19:52:47.418Z,8.63
2023-01-11T19:55:15.947Z,8.75
2023-01-11T19:57:44.590Z,8.73
2023-01-11T20:00:14.588Z,8.68
2023-01-11T20:02:44.569Z,8.59
2023-01-11T20:05:13.551Z,8.55
2023-01-11T20:07:42.110Z,8.65
2023-01-11T20:10:12.111Z,8.63
2023-01-11T20:12:41.572Z,8.52
2023-01-11T20:15:12.329Z,8.46
2023-01-11T20:17:41.235Z,8.39
2023-01-11T20:20:15.102Z,8.38
2023-01-11T20:22:45.519Z,8.32
2023-01-11T20:25:14.611Z,8.18
2023-01-11T20:27:43.053Z,8.15
2023-01-11T20:30:14.070Z,8.13
2023-01-11T20:32:44.865Z,8.05
2023-01-11T20:35:17.232Z,8.19
2023-01-11T20:37:45.716Z,8.12
2023-01-11T20:40:15.360Z,8.29
2023-01-11T20:42:43.881Z,8.31
2023-01-11T20:45:14.100Z,8.34
2023-01-11T20:47:45.662Z,8.33
2023-01-11T20:50:16.117Z,8.26
2023-01-11T20:52:44.979Z,8.05
2023-01-11T20:55:13.353Z,7.97
2023-01-11T20:57:41.936Z,7.94
2023-01-11T21:02:39.687Z,7.80
2023-01-11T21:05:09.399Z,7.18
2023-01-11T21:07:39.226Z,7.65
2023-01-11T21:10:12.881Z,7.61
2023-01-11T21:12:41.811Z,7.30
2023-01-11T21:15:11.292Z,7.52
2023-01-11T21:17:42.192Z,7.46
2023-01-11T21:20:14.527Z,7.35
2023-01-11T21:22:51.255Z,6.70
2023-01-11T21:25:21.719Z,7.33
2023-01-11T21:27:50.120Z,7.26
2023-01-11T21:30:21.605Z,7.27
2023-01-11T21:32:50.209Z,7.12
2023-01-11T21:35:18.736Z,7.18
2023-01-11T21:37:48.514Z,7.14
2023-01-11T21:40:17.428Z,7.08
2023-01-11T21:42:46.569Z,7.01
2023-01-11T21:45:15.121Z,7.01
2023-01-11T21:47:45.778Z,7.05
2023-01-11T21:50:14.217Z,7.01
2023-01-11T21:52:42.628Z,6.68
2023-01-11T21:55:12.490Z,6.92
2023-01-11T21:57:40.878Z,6.85
2023-01-11T22:00:14.098Z,6.81
2023-01-11T22:02:42.785Z,6.77
2023-01-11T22:05:11.841Z,6.71
2023-01-11T22:07:43.512Z,6.68
2023-01-11T22:10:15.175Z,6.66
2023-01-11T22:12:43.970Z,6.66
2023-01-11T22:15:12.752Z,6.68
2023-01-11T22:17:41.345Z,6.68
2023-01-11T22:20:11.895Z,6.65
2023-01-11T22:22:40.296Z,6.64
2023-01-11T22:25:09.888Z,6.40
2023-01-11T22:27:39.861Z,6.00
2023-01-11T22:30:10.852Z,6.38
2023-01-11T22:32:40.278Z,6.34
2023-01-11T22:35:10.447Z,6.36
2023-01-11T22:37:40.316Z,6.01
2023-01-11T22:40:11.106Z,6.21
2023-01-11T22:42:40.867Z,6.00
2023-01-11T22:45:11.449Z,6.05
2023-01-11T22:47:39.865Z,5.96
2023-01-11T22:50:10.285Z,5.97
2023-01-11T22:52:38.692Z,6.03
2023-01-11T22:55:08.847Z,5.91
2023-01-11T22:57:37.259Z,5.88
2023-01-11T23:00:10.052Z,5.83
2023-01-11T23:02:38.534Z,5.75
2023-01-11T23:05:08.574Z,5.28
2023-01-11T23:07:37.001Z,5.67
2023-01-11T23:10:07.595Z,5.62
2023-01-11T23:12:53.541Z,5.55
2023-01-11T23:15:23.288Z,5.53
2023-01-11T23:17:51.764Z,5.50
2023-01-11T23:20:20.158Z,5.56
2023-01-11T23:25:55.541Z,5.48
2023-01-11T23:28:24.338Z,5.28
2023-01-11T23:30:54.057Z,5.30
2023-01-11T23:33:22.515Z,5.14
2023-01-11T23:35:57.356Z,5.19
2023-01-11T23:38:25.991Z,5.26
2023-01-11T23:41:11.836Z,5.23
2023-01-11T23:43:40.284Z,5.35
2023-01-11T23:46:23.909Z,5.27
2023-01-11T23:48:52.573Z,5.24
2023-01-11T23:51:20.928Z,5.08
2023-01-11T23:53:51.207Z,5.18
2023-01-11T23:56:19.622Z,5.18
2023-01-11T23:58:47.964Z,5.15
